Time;durP1;ratioP1;P1;durP2;ratioP2;P2;SDS_P1;SDS_P2;PMS_P1;PMS_P2;Temp;Humidity;BMP_temperature;BMP_pressure;BME280_temperature;BME280_humidity;BME280_pressure;Samples;Min_cycle;Max_cycle;Signal;HPM_P1;HPM_P2
2023/05/01 00:01:05;;;;;;;8.32;5.20;;;9.70;99.90;;;-144.05;55.48;56908.31;5016707;28;20026;-81
2023/05/01 00:03:32;;;;;;;9.90;6.25;;;9.60;99.90;;;-144.05;55.68;56918.94;5017304;28;20037;-81
2023/05/01 00:06:04;;;;;;;10.10;6.38;;;9.60;99.90;;;-144.05;55.84;56904.06;5017384;28;20508;-79
2023/05/01 00:08:31;;;;;;;10.57;5.93;;;9.50;99.90;;;-144.05;56.20;56918.94;4999439;28;20108;-81
2023/05/01 00:11:02;;;;;;;12.02;6.40;;;9.40;99.90;;;-144.05;56.21;56925.28;5016499;28;20384;-82
2023/05/01 00:13:29;;;;;;;12.60;6.72;;;9.40;99.90;;;-144.05;56.32;56925.28;5017699;28;20026;-80
2023/05/01 00:15:55;;;;;;;10.15;5.95;;;9.40;99.90;;;-144.05;56.51;56923.19;4999967;28;20405;-81
2023/05/01 00:18:21;;;;;;;10.32;5.00;;;9.40;99.90;;;-144.05;56.33;56906.19;5016787;28;20029;-80
2023/05/01 00:20:46;;;;;;;10.25;5.13;;;9.30;99.90;;;-144.05;56.78;56908.31;4999610;28;20033;-79
2023/05/01 00:23:12;;;;;;;8.55;5.30;;;9.30;99.90;;;-144.05;57.13;56901.94;5017589;28;20025;-80
2023/05/01 00:25:38;;;;;;;12.10;5.70;;;9.30;99.90;;;-144.05;57.10;56895.56;5017919;28;20034;-81
2023/05/01 00:28:05;;;;;;;9.05;4.90;;;9.20;99.90;;;-144.05;57.27;56912.56;5016839;28;20038;-80
2023/05/01 00:30:34;;;;;;;12.32;5.20;;;9.10;99.90;;;-144.05;57.20;56921.06;5017678;28;20038;-81
2023/05/01 00:33:01;;;;;;;10.85;4.65;;;9.10;99.90;;;-144.05;57.22;56889.19;5000602;28;20030;-80
2023/05/01 00:35:28;;;;;;;10.90;4.82;;;9.00;99.90;;;-144.05;57.42;56918.94;5016505;28;20069;-79
2023/05/01 00:37:54;;;;;;;9.85;5.10;;;9.00;99.90;;;-144.05;58.06;56906.19;5016281;28;20493;-81
2023/05/01 00:40:21;;;;;;;10.85;4.38;;;8.90;99.90;;;-144.05;58.67;56916.81;4998820;28;20117;-82
2023/05/01 00:42:47;;;;;;;8.80;5.13;;;8.70;99.90;;;-144.05;59.64;56929.53;4998830;28;20109;-79
2023/05/01 00:45:13;;;;;;;8.30;4.85;;;8.50;99.90;;;-144.05;61.19;56880.69;4998365;28;20159;-80
2023/05/01 00:47:40;;;;;;;9.18;6.00;;;8.30;99.90;;;-144.05;61.96;56944.41;5016416;28;20030;-79
2023/05/01 00:50:07;;;;;;;10.23;5.07;;;8.10;99.90;;;-144.05;62.93;56925.28;5014777;28;20030;-80
2023/05/01 00:52:33;;;;;;;11.05;5.97;;;7.90;99.90;;;-144.05;63.67;56921.06;5016017;28;20037;-81
2023/05/01 00:54:59;;;;;;;6.47;4.50;;;7.80;99.90;;;-144.05;64.29;56925.28;5016148;28;20064;-78
2023/05/01 00:57:25;;;;;;;12.98;6.10;;;7.60;99.90;;;-144.05;64.64;56899.81;4998828;28;20474;-78
2023/05/01 00:59:51;;;;;;;8.25;5.45;;;7.50;99.90;;;-144.05;65.49;56916.81;5017034;28;20026;-80
2023/05/01 01:02:17;;;;;;;12.18;6.32;;;7.40;99.90;;;-144.05;65.94;56923.19;5016286;28;20033;-79
2023/05/01 01:04:46;;;;;;;11.95;6.00;;;7.30;99.90;;;-144.05;66.22;56933.78;5016148;28;20061;-81
2023/05/01 01:07:58;;;;;;;9.85;5.70;;;7.20;99.90;;;-144.05;67.13;56923.19;4999642;28;20032;-81
2023/05/01 01:11:37;;;;;;;12.32;6.63;;;7.10;99.90;;;-144.05;67.47;56931.66;5015713;28;20040;-81
2023/05/01 01:14:39;;;;;;;9.85;6.47;;;7.00;99.90;;;-144.05;67.48;56935.91;4946877;28;20501;-79
2023/05/01 01:17:33;;;;;;;10.95;5.55;;;6.90;99.90;;;-144.05;68.13;56901.94;4998104;28;20034;-80
2023/05/01 01:20:26;;;;;;;14.00;6.32;;;6.80;99.90;;;-144.05;68.50;56933.78;5019973;28;20021;-81
2023/05/01 01:24:16;;;;;;;10.45;7.03;;;6.80;99.90;;;-144.05;69.34;56914.69;5019505;28;20040;-79
2023/05/01 01:27:29;;;;;;;9.95;6.55;;;6.70;99.90;;;-144.05;69.50;56929.53;4978417;28;20413;-81
2023/05/01 01:30:37;;;;;;;8.45;6.03;;;6.60;99.90;;;-144.05;69.87;56893.44;5017581;28;20065;-80
2023/05/01 01:33:40;;;;;;;12.77;6.35;;;6.60;99.90;;;-144.05;70.24;56904.06;4999689;28;20045;-80
2023/05/01 01:36:17;;;;;;;11.57;6.40;;;6.50;99.90;;;-144.05;70.29;56952.91;5015774;28;20030;-79
2023/05/01 01:39:02;;;;;;;11.25;6.20;;;6.40;99.90;;;-144.05;70.94;56918.94;5015938;28;20021;-83
2023/05/01 01:41:35;;;;;;;12.32;6.53;;;6.30;99.90;;;-144.05;71.04;56931.66;4998662;28;20029;-82
2023/05/01 01:44:37;;;;;;;10.48;6.22;;;6.20;99.90;;;-144.05;71.57;56921.06;5015674;28;20022;-82
2023/05/01 01:47:10;;;;;;;15.93;6.15;;;6.30;99.90;;;-144.05;71.91;56933.78;5016109;28;20076;-81
2023/05/01 01:49:45;;;;;;;13.82;6.10;;;6.30;99.90;;;-144.05;72.12;56925.28;4997742;28;20484;-81
2023/05/01 01:52:16;;;;;;;11.90;6.78;;;6.30;99.90;;;-144.05;72.10;56944.41;4998098;28;20502;-82
2023/05/01 01:54:58;;;;;;;11.05;6.78;;;6.30;99.90;;;-144.05;72.51;56933.78;5015581;28;20076;-81
2023/05/01 01:57:27;;;;;;;12.98;6.97;;;6.20;99.90;;;-144.05;72.51;56929.53;5015519;28;20422;-80
2023/05/01 01:59:55;;;;;;;11.38;7.20;;;6.20;99.90;;;-144.05;72.75;56916.81;4997704;28;20113;-79
2023/05/01 02:02:23;;;;;;;15.95;7.20;;;6.10;99.90;;;-144.05;73.07;56946.53;4997933;28;20018;-80
2023/05/01 02:04:55;;;;;;;12.35;7.43;;;6.10;99.90;;;-144.05;73.64;56925.28;5016947;28;20046;-79
2023/05/01 02:07:25;;;;;;;13.57;6.82;;;6.10;99.90;;;-144.05;73.54;56957.16;5016538;28;20064;-80
2023/05/01 02:09:54;;;;;;;12.50;7.03;;;6.10;99.90;;;-144.05;73.55;56921.06;4998693;28;20030;-80
2023/05/01 02:12:25;;;;;;;9.43;6.18;;;6.00;99.90;;;-144.05;74.02;56938.03;4997760;28;20034;-81
2023/05/01 02:14:56;;;;;;;10.02;6.55;;;6.00;99.90;;;-144.05;73.97;56908.31;4998155;28;20030;-79
2023/05/01 02:17:23;;;;;;;10.30;6.07;;;6.00;99.90;;;-144.05;74.24;56933.78;4998765;28;20112;-81
2023/05/01 02:19:53;;;;;;;14.02;6.72;;;6.00;99.90;;;-144.05;74.64;56921.06;4998269;28;20026;-81
2023/05/01 02:22:22;;;;;;;11.00;6.55;;;5.90;99.90;;;-144.05;74.71;56933.78;4996947;28;20018;-80
2023/05/01 02:24:49;;;;;;;10.23;6.28;;;6.00;99.90;;;-144.05;74.93;56935.91;4997882;28;20030;-81
2023/05/01 02:27:43;;;;;;;13.57;6.70;;;5.90;99.90;;;-144.05;75.07;56918.94;5016690;28;20029;-82
2023/05/01 02:30:11;;;;;;;14.27;6.60;;;5.90;99.90;;;-144.05;75.20;56929.53;5015579;28;20062;-81
2023/05/01 02:32:36;;;;;;;12.13;6.88;;;5.90;99.90;;;-144.05;75.21;56927.41;4999743;28;20077;-81
2023/05/01 02:35:03;;;;;;;10.85;5.90;;;5.80;99.90;;;-144.05;75.28;56938.03;5016726;28;20065;-81
2023/05/01 02:37:30;;;;;;;10.23;6.50;;;5.80;99.90;;;-144.05;75.57;56929.53;5016895;28;20030;-81
2023/05/01 02:39:57;;;;;;;11.75;6.35;;;5.80;99.90;;;-144.05;75.65;56914.69;4998995;28;20127;-80
2023/05/01 02:42:27;;;;;;;11.02;6.30;;;5.80;99.90;;;-144.05;75.89;56938.03;4998939;28;20108;-81
2023/05/01 02:45:01;;;;;;;10.68;6.97;;;5.80;99.90;;;-144.05;75.85;56957.16;5016840;28;20026;-81
2023/05/01 02:47:33;;;;;;;13.10;6.68;;;5.70;99.90;;;-144.05;76.14;56944.41;4998731;28;20049;-82
2023/05/01 02:50:00;;;;;;;15.77;6.55;;;5.70;99.90;;;-144.05;76.07;56929.53;5017357;28;20034;-82
2023/05/01 02:52:28;;;;;;;13.00;6.95;;;5.70;99.90;;;-144.05;76.25;56925.28;5018653;28;20030;-81
2023/05/01 02:54:56;;;;;;;11.63;6.55;;;5.70;99.90;;;-144.05;76.37;56948.66;5018080;28;20029;-83
2023/05/01 02:57:22;;;;;;;11.20;6.63;;;5.70;99.90;;;-144.05;76.43;56931.66;5017838;28;20022;-82
2023/05/01 02:59:48;;;;;;;10.05;6.28;;;5.60;99.90;;;-144.05;76.82;56931.66;5017832;28;20473;-81
2023/05/01 03:02:14;;;;;;;18.75;6.50;;;5.60;99.90;;;-144.05;76.60;56925.28;5000664;28;20124;-81
2023/05/01 03:04:42;;;;;;;14.60;6.50;;;5.60;99.90;;;-144.05;76.79;56923.19;4997116;28;20026;-79
2023/05/01 03:07:08;;;;;;;14.23;6.38;;;5.50;99.90;;;-144.05;76.95;56942.28;5012790;28;20049;-80
2023/05/01 03:09:34;;;;;;;12.88;6.80;;;5.50;99.90;;;-144.05;76.92;56923.19;5012413;28;20080;-79
2023/05/01 03:12:01;;;;;;;9.65;6.20;;;5.50;99.90;;;-144.05;76.88;56931.66;5012522;28;20109;-79
2023/05/01 03:14:28;;;;;;;10.68;6.25;;;5.50;99.90;;;-144.05;77.11;56931.66;5012638;28;20185;-79
2023/05/01 03:16:55;;;;;;;14.40;7.25;;;5.40;99.90;;;-144.05;77.23;56955.03;4994698;28;20027;-80
2023/05/01 03:19:21;;;;;;;10.48;7.25;;;5.40;99.90;;;-144.05;77.23;56925.28;5012254;28;20513;-80
2023/05/01 03:21:47;;;;;;;9.90;6.07;;;5.50;99.90;;;-144.05;77.16;56935.91;5012012;28;20066;-80
2023/05/01 03:24:13;;;;;;;9.93;6.72;;;5.40;99.90;;;-144.05;77.64;56929.53;4994318;28;20472;-80
2023/05/01 03:26:39;;;;;;;12.95;6.93;;;5.40;99.90;;;-144.05;77.76;56942.28;5012012;28;20034;-78
2023/05/01 03:29:05;;;;;;;13.43;6.40;;;5.40;99.90;;;-144.05;77.66;56961.41;4996039;28;20029;-84
2023/05/01 03:31:31;;;;;;;16.13;7.50;;;5.40;99.90;;;-144.05;77.74;56942.28;5036675;22;20111;-78
2023/05/01 03:33:57;;;;;;;10.25;6.78;;;5.40;99.90;;;-144.05;77.80;56925.28;5013305;28;20053;-76
2023/05/01 03:36:23;;;;;;;9.18;6.43;;;5.40;99.90;;;-144.05;77.81;56948.66;5014488;28;20108;-78
2023/05/01 03:38:49;;;;;;;13.18;7.38;;;5.40;99.90;;;-144.05;77.86;56952.91;5014124;28;20025;-78
2023/05/01 03:41:15;;;;;;;12.98;6.63;;;5.40;99.90;;;-144.05;78.10;56921.06;5013475;28;20022;-77
2023/05/01 03:43:41;;;;;;;12.15;6.70;;;5.50;99.90;;;-144.05;78.27;56929.53;5013924;28;20095;-78
2023/05/01 03:46:07;;;;;;;9.65;6.50;;;5.50;99.90;;;-144.05;78.28;56933.78;5014895;28;20030;-78
2023/05/01 03:48:33;;;;;;;9.50;6.65;;;5.60;99.90;;;-144.05;78.10;56923.19;5014485;28;20080;-78
2023/05/01 03:50:59;;;;;;;11.32;6.18;;;5.50;99.90;;;-144.05;78.42;56929.53;5013788;28;20517;-77
2023/05/01 03:53:25;;;;;;;12.77;6.35;;;5.50;99.90;;;-144.05;78.34;56925.28;5015333;28;20049;-78
2023/05/01 03:55:51;;;;;;;9.57;6.40;;;5.50;99.90;;;-144.05;78.40;56944.41;5013814;28;20056;-77
2023/05/01 03:58:17;;;;;;;11.57;6.80;;;5.50;99.90;;;-144.05;78.41;56933.78;5014723;28;20105;-78
2023/05/01 04:00:42;;;;;;;10.02;6.30;;;5.50;99.90;;;-144.05;78.62;56935.91;5014555;28;20029;-78
2023/05/01 04:03:08;;;;;;;10.43;5.95;;;5.50;99.90;;;-144.05;78.53;56918.94;5014224;28;20033;-78
2023/05/01 04:05:35;;;;;;;12.05;6.13;;;5.50;99.90;;;-144.05;78.35;56929.53;5013917;28;20076;-76
2023/05/01 04:08:00;;;;;;;10.43;6.05;;;5.50;99.90;;;-144.05;78.47;56908.31;4996893;28;20030;-77
2023/05/01 04:10:26;;;;;;;11.95;7.05;;;5.60;99.90;;;-144.05;78.43;56938.03;5014391;28;20134;-78
2023/05/01 04:12:52;;;;;;;9.93;6.47;;;5.60;99.90;;;-144.05;78.61;56918.94;5012898;28;20030;-78
2023/05/01 04:15:18;;;;;;;12.88;6.72;;;5.60;99.90;;;-144.05;78.71;56944.41;5015842;28;20034;-78
2023/05/01 04:17:45;;;;;;;13.60;5.88;;;5.60;99.90;;;-144.05;78.51;56923.19;5015170;28;20029;-78
2023/05/01 04:20:11;;;;;;;10.60;5.63;;;5.60;99.90;;;-144.05;78.79;56942.28;5013855;28;20034;-78
2023/05/01 04:22:37;;;;;;;11.80;6.18;;;5.70;99.90;;;-144.05;78.80;56940.16;5014649;28;20045;-77
2023/05/01 04:25:07;;;;;;;12.00;6.15;;;5.70;99.90;;;-144.05;78.73;56925.28;5016916;28;20041;-75
2023/05/01 04:27:33;;;;;;;12.32;5.60;;;5.70;99.90;;;-144.05;78.60;56923.19;5015103;28;20034;-78
2023/05/01 04:29:59;;;;;;;15.40;6.28;;;5.80;99.90;;;-144.05;78.81;56918.94;4996639;28;20050;-76
2023/05/01 04:32:25;;;;;;;11.15;5.63;;;5.80;99.90;;;-144.05;78.51;56938.03;4996152;28;20030;-78
2023/05/01 04:34:51;;;;;;;7.93;5.82;;;5.80;99.90;;;-144.05;78.67;56921.06;5011971;28;20104;-78
2023/05/01 04:37:17;;;;;;;10.32;6.28;;;5.80;99.90;;;-144.05;78.55;56923.19;4996017;28;20037;-78
2023/05/01 04:39:43;;;;;;;11.23;6.10;;;5.90;99.90;;;-144.05;78.50;56931.66;4997725;28;20025;-78
2023/05/01 04:42:09;;;;;;;12.13;7.10;;;5.90;99.90;;;-144.05;78.33;56929.53;5013386;28;20030;-78
2023/05/01 04:44:36;;;;;;;12.38;6.53;;;6.00;99.90;;;-144.05;78.56;56921.06;5013219;28;20041;-78
2023/05/01 04:47:03;;;;;;;14.73;6.60;;;6.00;99.90;;;-144.05;78.28;56921.06;5017691;28;20030;-77
2023/05/01 04:49:29;;;;;;;11.13;6.25;;;6.10;99.90;;;-144.05;78.35;56918.94;5017372;28;20030;-80
2023/05/01 04:51:55;;;;;;;15.38;6.55;;;6.10;99.90;;;-144.05;78.31;56940.16;5018643;28;20112;-79
2023/05/01 04:54:22;;;;;;;10.00;6.35;;;6.20;99.90;;;-144.05;78.51;56893.44;5018544;28;20109;-79
2023/05/01 04:56:48;;;;;;;9.93;6.43;;;6.30;99.90;;;-144.05;78.16;56921.06;4999754;28;20033;-78
2023/05/01 04:59:14;;;;;;;9.50;6.47;;;6.40;99.90;;;-144.05;78.18;56946.53;5017139;28;20025;-78
2023/05/01 05:01:39;;;;;;;9.68;5.78;;;6.50;99.90;;;-144.05;78.20;56914.69;5017012;28;20079;-78
2023/05/01 05:04:06;;;;;;;10.85;6.55;;;6.50;99.90;;;-144.05;78.09;56927.41;5017297;28;20393;-78
2023/05/01 05:06:32;;;;;;;11.82;6.97;;;6.60;99.90;;;-144.05;77.84;56918.94;5017751;28;20030;-74
2023/05/01 05:08:58;;;;;;;12.98;6.75;;;6.70;99.90;;;-144.05;77.74;56921.06;5016891;28;20028;-78
2023/05/01 05:11:24;;;;;;;14.43;6.68;;;6.80;99.90;;;-144.05;77.41;56880.69;5016976;28;20298;-79
2023/05/01 05:13:50;;;;;;;10.75;6.55;;;6.90;99.90;;;-144.05;77.39;56908.31;5016281;28;20030;-77
2023/05/01 05:16:16;;;;;;;12.25;7.03;;;7.00;99.90;;;-144.05;77.48;56923.19;5016546;28;20050;-78
2023/05/01 05:18:42;;;;;;;11.30;6.75;;;7.10;99.90;;;-144.05;77.25;56901.94;5016426;28;20030;-77
2023/05/01 05:21:09;;;;;;;11.15;6.15;;;7.30;99.90;;;-144.05;76.90;56910.44;5016453;28;20113;-78
2023/05/01 05:23:35;;;;;;;10.63;6.65;;;7.40;99.90;;;-144.05;76.70;56895.56;5018828;28;20018;-75
2023/05/01 05:26:02;;;;;;;11.60;7.07;;;7.60;99.90;;;-144.05;76.38;56914.69;5018476;28;20034;-78
2023/05/01 05:28:29;;;;;;;13.57;7.00;;;7.70;99.90;;;-144.05;76.36;56901.94;5017300;28;20484;-78
2023/05/01 05:30:56;;;;;;;11.52;7.18;;;7.90;99.90;;;-144.05;76.06;56910.44;5016463;28;20044;-79
2023/05/01 05:33:23;;;;;;;12.80;6.43;;;8.00;99.90;;;-144.05;75.70;56895.56;5017830;28;20048;-78
2023/05/01 05:35:51;;;;;;;10.85;6.72;;;8.20;99.90;;;-144.05;75.59;56929.53;5019817;28;20034;-77
2023/05/01 05:38:17;;;;;;;12.43;7.07;;;8.40;99.90;;;-144.05;74.83;56912.56;5000743;28;20021;-76
2023/05/01 05:40:43;;;;;;;12.10;7.05;;;8.50;99.90;;;-144.05;74.65;56916.81;5016347;28;20026;-78
2023/05/01 05:43:09;;;;;;;14.02;6.35;;;8.60;99.90;;;-144.05;73.86;56908.31;5017196;28;20029;-75
2023/05/01 05:45:36;;;;;;;11.95;6.63;;;8.80;99.90;;;-144.05;73.55;56876.44;5016151;28;20026;-77
2023/05/01 05:48:03;;;;;;;14.50;6.95;;;9.00;99.90;;;-144.05;72.85;56889.19;4998094;28;20030;-77
2023/05/01 05:50:29;;;;;;;10.38;6.47;;;9.20;99.90;;;-144.05;72.00;56867.94;4998435;28;20034;-76
2023/05/01 05:52:55;;;;;;;10.70;6.22;;;9.30;99.90;;;-144.05;71.56;56882.81;5013880;28;20026;-79
2023/05/01 05:55:21;;;;;;;11.43;5.35;;;9.40;99.90;;;-144.05;70.48;56891.31;5015250;28;20339;-77
2023/05/01 05:57:47;;;;;;;8.82;5.95;;;9.50;99.90;;;-144.05;69.70;56876.44;5015012;28;20104;-77
2023/05/01 06:00:14;;;;;;;19.20;6.15;;;9.70;99.90;;;-144.05;67.76;56899.81;5015158;28;20026;-78
2023/05/01 06:02:40;;;;;;;9.32;5.75;;;9.80;99.90;;;-144.05;66.80;56895.56;5015143;28;20393;-78
2023/05/01 06:05:06;;;;;;;9.23;5.85;;;9.90;99.90;;;-144.05;64.65;56874.31;5016512;28;20030;-76
2023/05/01 06:07:32;;;;;;;7.28;5.05;;;9.90;99.90;;;-144.05;64.19;56872.19;5016714;28;20033;-77
2023/05/01 06:10:03;;;;;;;8.48;5.97;;;9.90;99.90;;;-144.05;63.67;56916.81;5015759;28;20038;-77
2023/05/01 06:12:29;;;;;;;11.20;5.43;;;9.90;99.90;;;-144.05;63.38;56904.06;5016040;28;20041;-76
2023/05/01 06:14:55;;;;;;;9.23;5.32;;;10.00;99.90;;;-144.05;62.96;56872.19;5015016;28;20161;-76
2023/05/01 06:17:21;;;;;;;11.27;6.13;;;10.10;99.90;;;-144.05;62.79;56878.56;5015770;28;20061;-76
2023/05/01 06:19:47;;;;;;;9.43;6.03;;;10.20;99.90;;;-144.05;62.51;56895.56;4998391;28;20113;-76
2023/05/01 06:22:13;;;;;;;8.90;6.35;;;10.30;99.90;;;-144.05;61.57;56891.31;5015654;28;20461;-77
2023/05/01 06:24:39;;;;;;;7.93;5.53;;;10.30;99.90;;;-144.05;61.18;56906.19;5015612;28;20072;-76
2023/05/01 06:27:05;;;;;;;9.00;5.32;;;10.40;99.90;;;-144.05;60.84;56895.56;4997607;28;20033;-78
2023/05/01 06:29:31;;;;;;;9.60;5.68;;;10.50;99.90;;;-144.05;60.26;56876.44;5014820;28;20401;-78
2023/05/01 06:31:56;;;;;;;9.60;5.93;;;10.60;99.90;;;-144.05;59.73;56878.56;4997142;28;20057;-77
2023/05/01 06:34:22;;;;;;;10.93;6.32;;;10.70;99.90;;;-144.05;58.87;56861.56;5015073;28;20373;-78
2023/05/01 06:36:48;;;;;;;12.20;5.88;;;10.70;99.90;;;-144.05;58.30;56893.44;5016322;28;20060;-78
2023/05/01 06:39:14;;;;;;;9.82;5.65;;;10.80;99.90;;;-144.05;57.23;56889.19;5015482;28;20064;-77
2023/05/01 06:41:40;;;;;;;10.52;6.07;;;11.00;99.90;;;-144.05;56.63;56908.31;4997371;28;20033;-77
2023/05/01 06:44:06;;;;;;;9.13;5.13;;;11.00;99.90;;;-144.05;56.47;56884.94;5014825;28;20029;-78
2023/05/01 06:46:32;;;;;;;11.85;6.43;;;11.30;99.90;;;-144.05;55.30;56901.94;5014563;28;20037;-78
2023/05/01 06:48:57;;;;;;;11.77;6.32;;;11.40;99.90;;;-144.05;54.24;56867.94;5014718;28;20025;-77
2023/05/01 06:51:23;;;;;;;9.90;5.45;;;11.50;99.90;;;-144.05;53.78;56861.56;5015494;28;20087;-76
2023/05/01 06:53:49;;;;;;;13.95;6.30;;;11.70;99.90;;;-144.05;52.85;56887.06;4997559;28;20160;-77
2023/05/01 06:56:15;;;;;;;10.73;5.60;;;11.90;99.90;;;-144.05;52.11;56887.06;5014760;28;20080;-78
2023/05/01 06:58:41;;;;;;;9.10;5.53;;;12.20;99.90;;;-144.05;51.19;56870.06;4997390;28;20100;-77
2023/05/01 07:01:09;;;;;;;11.07;6.22;;;12.30;99.90;;;-144.05;50.46;56906.19;5015120;28;20022;-76
2023/05/01 07:03:35;;;;;;;11.02;5.60;;;12.50;99.90;;;-144.05;50.10;56887.06;5014587;28;20030;-76
2023/05/01 07:06:01;;;;;;;10.38;5.30;;;12.70;99.90;;;-144.05;48.71;56880.69;5013841;28;20445;-78
2023/05/01 07:08:27;;;;;;;8.85;5.32;;;12.90;99.90;;;-144.05;48.37;56872.19;5012665;28;20096;-77
2023/05/01 07:10:53;;;;;;;6.50;4.63;;;13.30;99.90;;;-144.05;47.94;56861.56;5012534;28;20073;-73
2023/05/01 07:13:19;;;;;;;9.32;5.30;;;13.50;99.90;;;-144.05;47.29;56874.31;5013344;28;20034;-78
2023/05/01 07:15:44;;;;;;;9.48;4.95;;;13.80;99.90;;;-144.05;46.50;56904.06;4995398;28;20087;-76
2023/05/01 07:18:11;;;;;;;10.23;5.80;;;14.00;99.90;;;-144.05;46.69;56897.69;5013328;28;20499;-76
2023/05/01 07:20:37;;;;;;;10.27;5.22;;;14.20;99.90;;;-144.05;46.02;56887.06;5000239;28;20358;-77
2023/05/01 07:23:03;;;;;;;7.97;4.65;;;14.20;99.90;;;-144.05;44.82;56887.06;4998922;28;20025;-77
2023/05/01 07:25:30;;;;;;;8.48;4.55;;;14.30;99.90;;;-144.05;45.21;56874.31;5031345;28;20029;-78
2023/05/01 07:27:55;;;;;;;9.00;4.93;;;14.50;99.90;;;-144.05;44.63;56884.94;5033417;28;20056;-76
2023/05/01 07:30:21;;;;;;;6.38;4.00;;;14.80;99.90;;;-144.05;43.58;56876.44;5027568;28;20041;-78
2023/05/01 07:32:47;;;;;;;6.63;3.97;;;15.00;99.90;;;-144.05;42.84;56882.81;5030197;28;20036;-79
2023/05/01 07:35:13;;;;;;;11.43;4.90;;;15.30;99.90;;;-144.05;41.80;56908.31;5024815;28;20035;-78
2023/05/01 07:37:39;;;;;;;7.90;4.53;;;15.50;99.90;;;-144.05;41.62;56889.19;5014590;28;20089;-79
2023/05/01 07:40:06;;;;;;;9.60;4.57;;;15.40;99.90;;;-144.05;41.72;56882.81;5014277;28;20389;-77
2023/05/01 07:42:32;;;;;;;7.35;4.20;;;15.60;99.90;;;-144.05;42.06;56870.06;5013841;28;20397;-77
2023/05/01 07:44:57;;;;;;;5.25;3.90;;;15.80;99.90;;;-144.05;41.51;56906.19;5013286;28;20049;-77
2023/05/01 07:47:23;;;;;;;6.47;4.63;;;15.90;99.90;;;-144.05;41.18;56891.31;5013148;28;20041;-77
2023/05/01 07:49:49;;;;;;;7.28;4.53;;;16.00;99.90;;;-144.05;40.70;56880.69;5029340;28;20033;-78
2023/05/01 07:52:15;;;;;;;5.00;3.55;;;16.10;99.90;;;-144.05;40.69;56878.56;5032556;28;20105;-78
2023/05/01 07:54:41;;;;;;;9.18;4.28;;;16.30;99.90;;;-144.05;40.12;56887.06;5016467;28;20099;-78
2023/05/01 07:57:07;;;;;;;6.43;4.13;;;16.50;99.90;;;-144.05;39.67;56884.94;5036198;28;20029;-75
2023/05/01 07:59:33;;;;;;;8.75;4.13;;;17.10;99.90;;;-144.05;39.00;56910.44;5035073;28;20043;-77
2023/05/01 08:01:59;;;;;;;6.72;4.20;;;17.60;99.90;;;-144.05;37.99;56904.06;5022561;28;20026;-78
2023/05/01 08:04:26;;;;;;;5.88;3.45;;;17.70;99.90;;;-144.05;38.34;56908.31;5015897;28;20037;-78
2023/05/01 08:06:52;;;;;;;8.27;4.15;;;17.90;99.90;;;-144.05;37.41;56916.81;4997139;28;20056;-77
2023/05/01 08:09:18;;;;;;;8.52;3.50;;;17.90;99.90;;;-144.05;37.30;56893.44;5014359;28;20458;-77
2023/05/01 08:11:44;;;;;;;6.05;3.60;;;17.90;99.90;;;-144.05;37.84;56891.31;5014986;28;20037;-78
2023/05/01 08:14:10;;;;;;;5.90;2.90;;;18.20;99.90;;;-144.05;36.06;56897.69;4996152;28;20034;-76
2023/05/01 08:16:36;;;;;;;5.13;1.95;;;18.20;99.90;;;-144.05;37.08;56921.06;5014907;28;20458;-78
2023/05/01 08:19:01;;;;;;;6.43;3.50;;;18.10;99.90;;;-144.05;38.19;56897.69;4995396;28;20037;-75
2023/05/01 08:21:27;;;;;;;9.77;4.43;;;18.10;99.90;;;-144.05;37.65;56912.56;5017666;28;20050;-77
2023/05/01 08:23:55;;;;;;;9.75;4.82;;;18.20;99.90;;;-144.05;36.88;56908.31;5017665;28;20026;-76
2023/05/01 08:26:21;;;;;;;7.65;4.10;;;18.30;99.90;;;-144.05;36.49;56910.44;4998540;28;20057;-76
2023/05/01 08:28:47;;;;;;;8.85;3.55;;;18.40;99.90;;;-144.05;36.61;56931.66;5017180;28;20139;-78
2023/05/01 08:31:13;;;;;;;6.68;3.30;;;18.40;99.90;;;-144.05;36.69;56904.06;5016018;28;20581;-74
2023/05/01 08:33:43;;;;;;;5.63;2.92;;;18.50;99.90;;;-144.05;36.78;56929.53;5017127;28;20047;-77
2023/05/01 08:36:10;;;;;;;6.05;3.10;;;18.50;99.90;;;-144.05;36.54;56895.56;5016923;28;20045;-78
2023/05/01 08:38:38;;;;;;;4.75;2.90;;;18.60;99.90;;;-144.05;35.62;56912.56;5017844;28;20037;-77
2023/05/01 08:41:05;;;;;;;7.10;3.35;;;18.90;99.90;;;-144.05;35.12;56916.81;5018331;28;20061;-76
2023/05/01 08:43:31;;;;;;;4.53;2.53;;;19.20;99.80;;;-144.05;34.36;56923.19;5001417;28;20033;-78
2023/05/01 08:46:05;;;;;;;3.85;2.15;;;19.80;98.00;;;-144.05;34.07;56946.53;4999806;28;20397;-77
2023/05/01 08:48:35;;;;;;;4.88;2.50;;;20.20;97.00;;;-144.05;32.95;56950.78;5017166;28;20101;-77
2023/05/01 08:51:04;;;;;;;3.00;2.05;;;21.00;95.20;;;-144.05;32.03;56980.53;4998727;28;20160;-77
2023/05/01 08:53:32;;;;;;;3.70;2.13;;;21.50;92.90;;;-144.05;31.43;56961.41;5016419;28;20032;-76
2023/05/01 08:56:05;;;;;;;4.70;2.45;;;21.70;90.10;;;-144.05;31.67;56976.28;5018439;28;20094;-77
2023/05/01 08:58:35;;;;;;;6.35;2.50;;;21.90;87.70;;;-144.05;31.46;56993.25;5018496;28;20037;-78
2023/05/01 09:01:02;;;;;;;5.57;2.42;;;21.70;86.20;;;-144.05;31.47;56995.38;5019474;28;20034;-76
2023/05/01 09:03:32;;;;;;;3.60;2.20;;;21.80;85.30;;;-144.05;31.73;56974.16;5003486;28;20172;-76
2023/05/01 09:06:02;;;;;;;3.13;1.90;;;21.90;85.30;;;-144.05;31.74;56999.63;5019142;28;20029;-77
2023/05/01 09:08:28;;;;;;;5.45;2.90;;;21.80;84.50;;;-144.05;31.28;56982.66;5017461;28;20029;-76
2023/05/01 09:10:59;;;;;;;4.38;2.50;;;21.80;83.20;;;-144.05;31.32;56980.53;5016883;28;20029;-77
2023/05/01 09:13:25;;;;;;;4.80;2.25;;;21.60;83.10;;;-144.05;31.86;56961.41;5016796;28;20029;-77
2023/05/01 09:15:51;;;;;;;6.15;2.20;;;21.20;86.70;;;-144.05;31.82;56976.28;5015950;28;20037;-77
2023/05/01 09:18:17;;;;;;;4.03;2.10;;;21.10;83.90;;;-144.05;32.27;56957.16;5017008;28;20049;-78
2023/05/01 09:20:42;;;;;;;4.32;2.05;;;21.70;86.10;;;-144.05;30.79;56991.13;5017208;28;20608;-78
2023/05/01 09:23:10;;;;;;;3.75;1.90;;;21.60;82.20;;;-144.05;31.11;56999.63;5017286;28;20045;-78
2023/05/01 09:25:37;;;;;;;6.82;1.90;;;22.10;83.60;;;-144.05;30.62;56967.78;5000385;28;20034;-76
2023/05/01 09:28:06;;;;;;;5.47;2.20;;;22.30;79.90;;;-144.05;30.68;56993.25;5016527;28;20057;-77
2023/05/01 09:30:37;;;;;;;3.10;2.10;;;22.40;81.10;;;-144.05;30.70;56978.41;5015898;28;20026;-76
2023/05/01 09:33:15;;;;;;;2.92;1.85;;;22.20;77.80;;;-144.05;29.95;57006.00;5016906;28;20034;-78
2023/05/01 09:35:57;;;;;;;3.78;2.00;;;22.20;76.90;;;-144.05;30.44;56993.25;5017708;28;20026;-77
2023/05/01 09:38:26;;;;;;;4.32;1.65;;;22.30;76.50;;;-144.05;30.47;56976.28;5016539;28;20029;-78
2023/05/01 09:41:02;;;;;;;5.00;1.83;;;22.20;76.60;;;-144.05;29.91;56989.00;5000233;28;20030;-78
2023/05/01 09:43:30;;;;;;;4.07;2.15;;;22.20;74.10;;;-144.05;29.93;56993.25;5016900;28;20030;-78
2023/05/01 09:46:11;;;;;;;5.63;1.80;;;22.20;73.70;;;-144.05;29.79;57010.25;5015192;28;20088;-77
2023/05/01 09:48:38;;;;;;;5.72;2.00;;;22.10;73.90;;;-144.05;30.30;56976.28;5015963;28;20481;-76
2023/05/01 09:51:25;;;;;;;3.97;2.22;;;22.10;75.40;;;-144.05;30.97;56986.91;5015494;28;20041;-79
2023/05/01 09:53:55;;;;;;;2.78;1.63;;;21.90;77.10;;;-144.05;31.13;56963.53;5016036;28;20037;-78
2023/05/01 09:56:21;;;;;;;3.35;1.77;;;21.80;78.60;;;-144.05;30.96;56974.16;5016591;28;20509;-77
2023/05/01 09:58:51;;;;;;;4.40;1.88;;;22.30;78.30;;;-144.05;29.46;56991.13;5016046;28;20033;-77
2023/05/01 10:01:16;;;;;;;3.42;1.73;;;22.60;72.90;;;-144.05;30.11;57008.13;5016258;28;20486;-78
2023/05/01 10:03:45;;;;;;;2.10;1.42;;;22.70;74.20;;;-144.05;30.28;57016.63;5016542;28;20030;-78
2023/05/01 10:06:11;;;;;;;2.70;1.67;;;22.70;73.50;;;-144.05;29.45;57008.13;5016028;28;20033;-77
2023/05/01 10:08:49;;;;;;;3.35;1.92;;;22.70;70.70;;;-144.05;28.76;56978.41;5016623;28;20036;-77
2023/05/01 10:11:15;;;;;;;2.25;1.38;;;22.70;69.00;;;-144.05;28.50;56980.53;5016374;28;20441;-79
2023/05/01 10:13:41;;;;;;;4.70;1.42;;;22.60;68.50;;;-144.05;30.04;56995.38;5016094;28;20057;-78
2023/05/01 10:16:29;;;;;;;1.73;1.27;;;22.50;73.30;;;-144.05;29.90;56986.91;5015979;28;20045;-76